createdAt,value
2018-01-04T00:01:16.784Z,37.13
2018-01-04T00:03:44.496Z,37.50
2018-01-04T00:06:12.448Z,34.40
2018-01-04T00:08:40.007Z,32.20
2018-01-04T00:11:07.574Z,29.93
2018-01-04T00:13:35.138Z,30.43
2018-01-04T00:16:02.710Z,34.70
2018-01-04T00:18:30.640Z,42.27
2018-01-04T00:20:58.457Z,40.93
2018-01-04T00:23:26.018Z,42.60
2018-01-04T00:25:53.590Z,38.80
2018-01-04T00:28:21.150Z,38.17
2018-01-04T00:30:48.763Z,36.27
2018-01-04T00:33:16.547Z,40.40
2018-01-04T00:35:44.231Z,34.40
2018-01-04T00:38:11.794Z,37.20
2018-01-04T00:40:39.601Z,36.83
2018-01-04T00:43:07.429Z,38.70
2018-01-04T00:45:34.998Z,38.10
2018-01-04T00:48:02.557Z,38.13
2018-01-04T00:50:30.374Z,33.50
2018-01-04T00:52:58.093Z,35.23
2018-01-04T00:55:25.706Z,38.00
2018-01-04T00:57:53.528Z,38.90
2018-01-04T01:00:21.138Z,34.73
2018-01-04T01:02:48.690Z,35.40
2018-01-04T01:05:16.244Z,35.53
2018-01-04T01:07:43.858Z,33.07
2018-01-04T01:10:11.414Z,39.70
2018-01-04T01:12:39.135Z,33.70
2018-01-04T01:15:06.746Z,36.53
2018-01-04T01:17:34.369Z,36.30
2018-01-04T01:20:01.986Z,37.27
2018-01-04T01:22:29.547Z,33.67
2018-01-04T01:24:57.325Z,35.03
2018-01-04T01:27:24.922Z,41.13
2018-01-04T01:29:52.482Z,38.87
2018-01-04T01:32:20.089Z,40.77
2018-01-04T01:34:47.897Z,40.73
2018-01-04T01:37:15.459Z,30.97
2018-01-04T01:39:43.233Z,38.27
2018-01-04T01:42:10.806Z,37.07
2018-01-04T01:44:38.419Z,41.13
2018-01-04T01:47:05.978Z,41.63
2018-01-04T01:49:33.665Z,41.13
2018-01-04T01:52:01.423Z,30.70
2018-01-04T01:54:28.978Z,32.30
2018-01-04T01:56:56.597Z,35.13
2018-01-04T01:59:24.184Z,32.43
2018-01-04T02:01:51.749Z,36.63
2018-01-04T02:04:19.512Z,36.13
2018-01-04T02:06:47.143Z,37.77
2018-01-04T02:09:14.758Z,41.70
2018-01-04T02:11:42.322Z,38.07
2018-01-04T02:14:10.051Z,43.47
2018-01-04T02:16:37.622Z,38.17
2018-01-04T02:19:17.010Z,34.40
2018-01-04T02:21:56.621Z,34.90
2018-01-04T02:24:36.181Z,29.73
2018-01-04T02:27:15.558Z,30.63
2018-01-04T02:29:54.915Z,29.30
2018-01-04T02:32:34.300Z,31.47
2018-01-04T02:35:11.669Z,46.63
2018-01-04T02:37:51.028Z,39.17
2018-01-04T02:40:30.456Z,30.03
2018-01-04T02:43:09.907Z,30.87
2018-01-04T02:45:58.902Z,26.87
2018-01-04T02:48:26.479Z,28.10
2018-01-04T02:50:54.193Z,37.93
2018-01-04T02:53:22.039Z,36.63
2018-01-04T02:55:49.612Z,37.17
2018-01-04T02:58:17.174Z,33.37
2018-01-04T03:00:44.991Z,30.13
2018-01-04T03:03:12.554Z,37.93
2018-01-04T03:05:40.325Z,32.97
2018-01-04T03:08:07.878Z,30.17
2018-01-04T03:10:35.438Z,37.87
2018-01-04T03:13:03.279Z,35.07
2018-01-04T03:15:30.845Z,31.00
2018-01-04T03:17:58.462Z,29.10
2018-01-04T03:20:26.014Z,27.33
2018-01-04T03:22:59.222Z,32.03
2018-01-04T03:25:32.610Z,26.30
2018-01-04T03:28:05.538Z,32.70
2018-01-04T03:30:38.799Z,30.00
2018-01-04T03:33:11.794Z,32.00
2018-01-04T03:35:44.947Z,33.73
2018-01-04T03:38:18.064Z,33.17
2018-01-04T03:40:51.130Z,30.00
2018-01-04T03:43:24.278Z,30.00
2018-01-04T03:45:57.606Z,36.47
2018-01-04T03:48:27.881Z,30.33
2018-01-04T03:51:01.042Z,38.90
2018-01-04T03:53:34.019Z,32.07
2018-01-04T03:56:07.358Z,33.30
2018-01-04T03:58:40.401Z,38.37
2018-01-04T04:04:19.643Z,65.00
2018-01-04T04:06:52.768Z,58.33
2018-01-04T04:09:20.406Z,70.93
2018-01-04T04:11:48.125Z,50.03
2018-01-04T04:14:15.681Z,40.33
2018-01-04T04:16:43.276Z,28.70
2018-01-04T04:19:10.837Z,34.63
2018-01-04T04:21:38.462Z,34.50
2018-01-04T04:24:06.024Z,29.27
2018-01-04T04:26:33.752Z,34.03
2018-01-04T04:29:01.327Z,33.53
2018-01-04T04:31:29.002Z,43.67
2018-01-04T04:33:56.878Z,44.50
2018-01-04T04:36:24.439Z,50.17
2018-01-04T04:38:51.984Z,47.07
2018-01-04T04:41:19.761Z,44.73
2018-01-04T04:43:47.326Z,39.30
2018-01-04T04:46:14.949Z,40.43
2018-01-04T04:48:42.714Z,41.47
2018-01-04T04:51:10.274Z,50.17
2018-01-04T04:53:38.051Z,51.70
2018-01-04T04:56:05.610Z,58.07
2018-01-04T04:58:33.225Z,51.03
2018-01-04T05:01:00.965Z,50.63
2018-01-04T05:03:28.593Z,40.63
2018-01-04T05:05:56.142Z,35.50
2018-01-04T05:08:23.859Z,33.30
2018-01-04T05:10:51.492Z,46.77
2018-01-04T05:13:19.054Z,40.20
2018-01-04T05:15:46.814Z,39.67
2018-01-04T05:18:14.399Z,46.13
2018-01-04T05:20:41.953Z,39.23
2018-01-04T05:23:09.618Z,42.97
2018-01-04T05:25:37.171Z,41.73
2018-01-04T05:28:04.734Z,39.93
2018-01-04T05:30:32.306Z,38.97
2018-01-04T05:32:59.906Z,41.40
2018-01-04T05:35:27.758Z,40.83
2018-01-04T05:37:55.313Z,44.60
2018-01-04T05:40:23.057Z,39.77
2018-01-04T05:42:50.662Z,41.53
2018-01-04T05:45:18.227Z,38.87
2018-01-04T05:47:45.844Z,43.50
2018-01-04T05:50:13.417Z,41.80
2018-01-04T05:52:40.966Z,50.57
2018-01-04T05:55:08.590Z,53.57
2018-01-04T05:57:36.418Z,46.67
2018-01-04T06:00:04.336Z,51.93
2018-01-04T06:02:31.894Z,73.23
2018-01-04T06:04:59.675Z,127.73
2018-01-04T06:07:27.250Z,87.97
2018-01-04T06:09:55.008Z,58.90
2018-01-04T06:12:22.826Z,70.70
2018-01-04T06:14:50.437Z,85.40
2018-01-04T06:17:18.162Z,93.67
2018-01-04T06:19:45.771Z,69.37
2018-01-04T06:22:13.347Z,78.70
2018-01-04T06:24:41.200Z,99.10
2018-01-04T06:27:08.770Z,48.67
2018-01-04T06:29:36.530Z,50.00
2018-01-04T06:32:04.110Z,53.83
2018-01-04T06:34:31.889Z,58.43
2018-01-04T06:36:59.528Z,64.03
2018-01-04T06:39:27.294Z,54.33
2018-01-04T06:41:55.013Z,88.30
2018-01-04T06:44:22.726Z,84.50
2018-01-04T06:46:50.299Z,71.47
2018-01-04T06:49:17.922Z,91.80
2018-01-04T06:51:45.486Z,135.10
2018-01-04T06:54:13.114Z,60.53
2018-01-04T06:56:40.833Z,61.90
2018-01-04T06:59:08.420Z,122.53
2018-01-04T07:01:36.289Z,138.17
2018-01-04T07:04:03.862Z,166.30
2018-01-04T07:06:31.636Z,363.47
2018-01-04T07:08:59.232Z,363.37
2018-01-04T07:11:26.860Z,222.37
2018-01-04T07:13:54.490Z,330.43
2018-01-04T07:16:22.078Z,309.33
2018-01-04T07:18:49.814Z,216.10
2018-01-04T07:21:17.433Z,230.43
2018-01-04T07:23:45.047Z,277.37
2018-01-04T07:26:12.663Z,262.67
2018-01-04T07:28:40.266Z,205.80
2018-01-04T07:31:07.838Z,125.50
2018-01-04T07:33:35.513Z,107.53
2018-01-04T07:36:03.131Z,102.70
2018-01-04T07:38:30.810Z,91.10
2018-01-04T07:40:58.375Z,57.33
2018-01-04T07:43:25.934Z,60.87
2018-01-04T07:45:53.502Z,62.70
2018-01-04T07:48:21.087Z,75.33
2018-01-04T07:50:48.714Z,822.97
2018-01-04T07:53:16.282Z,287.63
2018-01-04T07:55:44.082Z,188.97
2018-01-04T07:58:11.901Z,145.10
2018-01-04T08:00:39.719Z,94.27
2018-01-04T08:03:07.540Z,64.27
2018-01-04T08:05:35.240Z,48.90
2018-01-04T08:08:02.954Z,58.47
2018-01-04T08:10:30.793Z,71.20
2018-01-04T08:12:58.352Z,68.10
2018-01-04T08:15:25.986Z,100.60
2018-01-04T08:17:53.718Z,100.23
2018-01-04T08:20:21.356Z,103.23
2018-01-04T08:22:49.184Z,92.33
2018-01-04T08:25:17.002Z,109.17
2018-01-04T08:27:44.618Z,151.93
2018-01-04T08:30:12.438Z,165.17
2018-01-04T08:32:40.257Z,156.50
2018-01-04T08:35:08.076Z,172.20
2018-01-04T08:37:35.642Z,436.83
2018-01-04T08:40:03.516Z,559.77
2018-01-04T08:42:31.330Z,269.23
2018-01-04T08:44:59.150Z,144.43
2018-01-04T08:47:27.403Z,142.63
2018-01-04T08:49:55.188Z,123.30
2018-01-04T08:52:23.006Z,102.03
2018-01-04T08:54:50.597Z,112.13
2018-01-04T08:57:18.159Z,98.27
2018-01-04T08:59:45.730Z,90.10
2018-01-04T09:02:13.479Z,90.03
2018-01-04T09:04:41.297Z,90.80
2018-01-04T09:07:09.124Z,98.37
2018-01-04T09:09:36.687Z,90.17
2018-01-04T09:12:04.451Z,88.97
2018-01-04T09:14:32.042Z,84.60
2018-01-04T09:16:59.661Z,75.13
2018-01-04T09:19:27.242Z,50.83
2018-01-04T09:21:54.914Z,55.50
2018-01-04T09:24:22.640Z,52.67
2018-01-04T09:26:50.191Z,50.27
2018-01-04T09:29:17.977Z,52.07
2018-01-04T09:31:45.684Z,56.90
2018-01-04T09:34:13.406Z,54.37
2018-01-04T09:36:41.233Z,71.40
2018-01-04T09:39:08.951Z,62.63
2018-01-04T09:41:36.746Z,66.33
2018-01-04T09:44:04.588Z,62.60
2018-01-04T09:46:32.285Z,46.23
2018-01-04T09:49:00.027Z,49.43
2018-01-04T09:51:27.590Z,48.23
2018-01-04T09:53:55.267Z,75.83
2018-01-04T09:56:22.843Z,62.30
2018-01-04T09:58:50.409Z,138.03
2018-01-04T10:01:18.214Z,58.53
2018-01-04T10:03:45.796Z,58.20
2018-01-04T10:06:13.446Z,73.33
2018-01-04T10:08:41.055Z,71.13
2018-01-04T10:11:08.700Z,71.43
2018-01-04T10:13:36.383Z,68.10
2018-01-04T10:16:04.097Z,82.97
2018-01-04T10:18:31.784Z,52.47
2018-01-04T10:20:59.535Z,55.00
2018-01-04T10:23:27.097Z,51.63
2018-01-04T10:25:54.680Z,49.43
2018-01-04T10:28:22.279Z,36.07
2018-01-04T10:30:50.042Z,55.83
2018-01-04T10:33:17.582Z,44.00
2018-01-04T10:35:45.142Z,47.63
2018-01-04T10:38:12.884Z,53.10
2018-01-04T10:40:40.442Z,31.50
2018-01-04T10:43:08.140Z,28.60
2018-01-04T10:45:35.720Z,33.07
2018-01-04T10:48:03.556Z,23.07
2018-01-04T10:50:31.134Z,28.40
2018-01-04T10:52:58.700Z,35.17
2018-01-04T10:55:26.538Z,25.37
2018-01-04T10:57:54.330Z,27.87
2018-01-04T11:00:22.148Z,23.43
2018-01-04T11:02:49.718Z,23.13
2018-01-04T11:05:17.485Z,24.53
2018-01-04T11:07:45.302Z,27.63
2018-01-04T11:10:13.122Z,17.53
2018-01-04T11:12:40.839Z,18.47
2018-01-04T11:15:08.657Z,18.87
2018-01-04T11:17:36.379Z,18.30
2018-01-04T11:20:04.006Z,19.67
2018-01-04T11:22:31.862Z,22.50
2018-01-04T11:24:59.631Z,34.67
2018-01-04T11:27:27.449Z,26.27
2018-01-04T11:29:55.184Z,25.97
2018-01-04T11:32:22.977Z,26.00
2018-01-04T11:34:50.555Z,18.37
2018-01-04T11:37:18.118Z,19.47
2018-01-04T11:39:45.691Z,18.00
2018-01-04T11:42:13.445Z,24.73
2018-01-04T11:44:41.121Z,24.83
2018-01-04T11:47:08.793Z,23.13
2018-01-04T11:49:36.381Z,17.23
2018-01-04T11:52:05.024Z,20.63
2018-01-04T11:54:32.610Z,16.83
2018-01-04T11:57:00.194Z,17.23
2018-01-04T11:59:27.810Z,18.57
2018-01-04T12:01:55.506Z,17.77
2018-01-04T12:04:23.223Z,17.63
2018-01-04T12:06:50.862Z,16.47
2018-01-04T12:09:18.658Z,25.97
2018-01-04T12:11:46.218Z,36.47
2018-01-04T12:14:13.818Z,17.63
2018-01-04T12:16:41.382Z,16.43
2018-01-04T12:19:08.964Z,18.43
2018-01-04T12:21:36.582Z,25.67
2018-01-04T12:24:04.366Z,17.83
2018-01-04T12:26:31.927Z,23.80
2018-01-04T12:28:59.547Z,21.27
2018-01-04T12:31:27.112Z,23.37
2018-01-04T12:33:54.810Z,23.00
2018-01-04T12:36:22.444Z,22.20
2018-01-04T12:38:50.010Z,21.13
2018-01-04T12:41:17.758Z,33.33
2018-01-04T12:43:45.610Z,20.87
2018-01-04T12:46:13.166Z,30.67
2018-01-04T12:48:40.734Z,24.53
2018-01-04T12:51:08.503Z,24.17
2018-01-04T12:53:36.067Z,24.27
2018-01-04T12:56:03.782Z,31.57
2018-01-04T12:58:31.385Z,21.13
2018-01-04T13:00:58.941Z,28.63
2018-01-04T13:03:26.521Z,20.90
2018-01-04T13:05:54.371Z,29.53
2018-01-04T13:08:21.963Z,24.17
2018-01-04T13:10:49.580Z,28.73
2018-01-04T13:13:17.194Z,28.90
2018-01-04T13:15:44.763Z,24.90
2018-01-04T13:18:12.537Z,26.97
2018-01-04T13:20:40.388Z,20.77
2018-01-04T13:23:07.950Z,24.83
2018-01-04T13:25:35.518Z,16.17
2018-01-04T13:28:03.333Z,19.30
2018-01-04T13:30:31.151Z,22.63
2018-01-04T13:32:58.816Z,24.93
2018-01-04T13:35:26.426Z,25.53
2018-01-04T13:37:54.182Z,37.50
2018-01-04T13:40:21.898Z,27.50
2018-01-04T13:42:49.720Z,20.10
2018-01-04T13:45:17.530Z,22.00
2018-01-04T13:47:45.097Z,28.50
2018-01-04T13:50:12.898Z,25.47
2018-01-04T13:52:40.466Z,41.47
2018-01-04T13:55:08.196Z,36.00
2018-01-04T13:57:35.815Z,30.60
2018-01-04T14:00:03.528Z,26.73
2018-01-04T14:02:31.090Z,26.77
2018-01-04T14:04:58.907Z,28.53
2018-01-04T14:07:26.474Z,22.73
2018-01-04T14:09:54.042Z,23.53
2018-01-04T14:12:21.860Z,23.03
2018-01-04T14:14:49.418Z,31.37
2018-01-04T14:17:16.983Z,31.37
2018-01-04T14:19:44.814Z,28.67
2018-01-04T14:22:12.374Z,27.63
2018-01-04T14:24:40.030Z,32.33
2018-01-04T14:27:07.649Z,30.53
2018-01-04T14:29:35.209Z,47.67
2018-01-04T14:32:02.882Z,48.90
2018-01-04T14:34:30.512Z,66.50
2018-01-04T14:36:58.222Z,74.63
2018-01-04T14:39:25.868Z,167.73
2018-01-04T14:41:53.490Z,159.60
2018-01-04T14:44:21.183Z,147.63
2018-01-04T14:46:48.753Z,84.30
2018-01-04T14:49:16.375Z,83.47
2018-01-04T14:51:43.946Z,110.73
2018-01-04T14:54:11.568Z,71.70
2018-01-04T14:56:39.453Z,73.80
2018-01-04T14:59:07.020Z,103.83
2018-01-04T15:01:34.820Z,106.97
2018-01-04T15:04:02.556Z,103.60
2018-01-04T15:06:30.358Z,134.47
2018-01-04T15:08:58.075Z,130.87
2018-01-04T15:11:25.742Z,173.93
2018-01-04T15:13:53.511Z,198.67
2018-01-04T15:16:21.082Z,182.27
2018-01-04T15:18:48.706Z,244.60
2018-01-04T15:21:16.466Z,240.63
2018-01-04T15:23:44.135Z,270.20
2018-01-04T15:26:11.765Z,142.00
2018-01-04T15:28:39.330Z,107.60
2018-01-04T15:31:06.921Z,126.70
2018-01-04T15:33:34.616Z,129.13
2018-01-04T15:36:02.246Z,157.63
2018-01-04T15:38:29.957Z,132.53
2018-01-04T15:40:57.570Z,113.90
2018-01-04T15:43:25.369Z,110.03
2018-01-04T15:45:52.926Z,99.73
2018-01-04T15:48:20.685Z,100.60
2018-01-04T15:50:48.277Z,109.87
2018-01-04T15:53:15.845Z,198.00
2018-01-04T15:55:43.485Z,209.93
2018-01-04T15:58:11.339Z,249.37
2018-01-04T16:00:39.152Z,172.73
2018-01-04T16:03:06.854Z,170.77
2018-01-04T16:05:34.425Z,172.33
2018-01-04T16:08:02.014Z,161.07
2018-01-04T16:10:29.732Z,256.90
2018-01-04T16:12:57.302Z,224.07
2018-01-04T16:15:24.885Z,188.07
2018-01-04T16:17:52.514Z,185.87
2018-01-04T16:20:20.083Z,175.63
2018-01-04T16:22:47.658Z,151.33
2018-01-04T16:25:15.516Z,143.17
2018-01-04T16:27:43.100Z,147.90
2018-01-04T16:30:10.730Z,153.80
2018-01-04T16:32:38.341Z,163.57
2018-01-04T16:35:05.938Z,178.63
2018-01-04T16:37:33.511Z,152.53
2018-01-04T16:40:01.131Z,110.20
2018-01-04T16:42:28.861Z,101.50
2018-01-04T16:44:56.415Z,153.03
2018-01-04T16:47:24.038Z,253.73
2018-01-04T16:49:51.616Z,247.30
2018-01-04T16:52:19.189Z,356.93
2018-01-04T16:54:46.810Z,477.20
2018-01-04T16:57:14.551Z,445.90
2018-01-04T16:59:42.268Z,475.93
2018-01-04T17:02:09.891Z,430.10
2018-01-04T17:04:37.466Z,145.67
2018-01-04T17:07:05.040Z,216.03
2018-01-04T17:09:32.750Z,304.13
2018-01-04T17:12:00.575Z,342.00
2018-01-04T17:14:28.146Z,283.07
2018-01-04T17:16:56.181Z,230.93
2018-01-04T17:19:23.751Z,201.00
2018-01-04T17:21:51.554Z,278.20
2018-01-04T17:24:19.179Z,289.30
2018-01-04T17:26:46.864Z,178.23
2018-01-04T17:29:14.444Z,165.13
2018-01-04T17:31:42.321Z,97.67
2018-01-04T17:34:09.912Z,87.97
2018-01-04T17:36:37.494Z,104.60
2018-01-04T17:39:05.275Z,83.43
2018-01-04T17:41:32.968Z,90.27
2018-01-04T17:44:00.532Z,172.37
2018-01-04T17:46:28.281Z,617.80
2018-01-04T17:48:55.940Z,277.90
2018-01-04T17:51:23.772Z,189.73
2018-01-04T17:53:51.406Z,198.70
2018-01-04T17:56:19.063Z,193.27
2018-01-04T17:58:46.630Z,199.07
2018-01-04T18:01:14.288Z,225.63
2018-01-04T18:03:42.056Z,220.87
2018-01-04T18:06:09.622Z,195.57
2018-01-04T18:08:37.381Z,182.43
2018-01-04T18:11:04.959Z,227.90
2018-01-04T18:13:32.535Z,209.40
2018-01-04T18:16:00.242Z,223.97
2018-01-04T18:18:28.064Z,213.70
2018-01-04T18:20:55.667Z,168.87
2018-01-04T18:23:23.502Z,255.10
2018-01-04T18:25:51.090Z,257.27
2018-01-04T18:28:18.662Z,159.67
2018-01-04T18:30:46.406Z,137.30
2018-01-04T18:33:13.970Z,193.93
2018-01-04T18:35:41.582Z,241.83
2018-01-04T18:38:09.412Z,226.83
2018-01-04T18:40:36.959Z,211.53
2018-01-04T18:43:04.530Z,214.27
2018-01-04T18:45:32.161Z,194.03
2018-01-04T18:47:59.722Z,194.77
2018-01-04T18:50:27.294Z,157.17
2018-01-04T18:52:55.000Z,137.83
2018-01-04T18:55:22.574Z,113.77
2018-01-04T18:57:50.206Z,107.83
2018-01-04T19:00:17.860Z,91.73
2018-01-04T19:02:45.588Z,84.90
2018-01-04T19:05:13.158Z,95.53
2018-01-04T19:07:40.807Z,152.03
2018-01-04T19:10:08.428Z,97.90
2018-01-04T19:12:36.159Z,94.80
2018-01-04T19:15:03.969Z,86.47
2018-01-04T19:17:31.696Z,97.43
2018-01-04T19:19:59.414Z,110.43
2018-01-04T19:22:27.301Z,130.17
2018-01-04T19:24:54.894Z,126.47
2018-01-04T19:27:22.671Z,119.63
2018-01-04T19:29:50.590Z,124.57
2018-01-04T19:32:18.407Z,123.43
2018-01-04T19:34:46.227Z,147.60
2018-01-04T19:37:13.867Z,158.57
2018-01-04T19:39:41.562Z,188.67
2018-01-04T19:42:09.380Z,198.10
2018-01-04T19:44:37.018Z,197.07
2018-01-04T19:47:04.817Z,232.30
2018-01-04T19:49:32.406Z,203.13
2018-01-04T19:52:00.253Z,182.30
2018-01-04T19:54:27.846Z,170.63
2018-01-04T19:56:55.413Z,157.00
2018-01-04T19:59:23.207Z,176.03
2018-01-04T20:01:50.760Z,220.50
2018-01-04T20:04:18.340Z,245.43
2018-01-04T20:06:46.161Z,315.90
2018-01-04T20:09:13.730Z,264.27
2018-01-04T20:11:41.299Z,243.73
2018-01-04T20:14:08.933Z,147.53
2018-01-04T20:16:36.522Z,154.73
2018-01-04T20:19:04.095Z,139.23
2018-01-04T20:21:31.869Z,132.90
2018-01-04T20:23:59.587Z,120.27
2018-01-04T20:26:27.405Z,117.73
2018-01-04T20:28:55.038Z,104.77
2018-01-04T20:31:22.842Z,102.33
2018-01-04T20:33:50.426Z,106.23
2018-01-04T20:36:18.125Z,112.73
2018-01-04T20:38:45.716Z,113.73
2018-01-04T20:41:13.282Z,129.40
2018-01-04T20:43:40.894Z,143.17
2018-01-04T20:46:08.471Z,146.53
2018-01-04T20:48:36.070Z,135.67
2018-01-04T20:51:03.724Z,163.90
2018-01-04T20:53:31.503Z,134.70
2018-01-04T20:55:59.322Z,124.00
2018-01-04T20:58:27.139Z,155.03
2018-01-04T21:00:54.744Z,154.47
2018-01-04T21:03:22.360Z,112.97
2018-01-04T21:05:49.995Z,110.53
2018-01-04T21:08:17.573Z,101.40
2018-01-04T21:10:45.331Z,98.23
2018-01-04T21:13:12.959Z,137.10
2018-01-04T21:15:40.522Z,126.40
2018-01-04T21:18:08.283Z,126.10
2018-01-04T21:20:36.101Z,145.60
2018-01-04T21:23:03.676Z,151.07
2018-01-04T21:25:31.253Z,228.07
2018-01-04T21:27:58.875Z,195.03
2018-01-04T21:30:26.730Z,188.47
2018-01-04T21:32:54.281Z,145.07
2018-01-04T21:35:22.063Z,160.97
2018-01-04T21:37:49.638Z,236.73
2018-01-04T21:40:17.211Z,157.63
2018-01-04T21:42:44.862Z,83.23
2018-01-04T21:45:12.429Z,102.97
2018-01-04T21:47:39.994Z,119.63
2018-01-04T21:50:07.810Z,687.10
2018-01-04T21:52:35.386Z,618.43
2018-01-04T21:55:03.118Z,347.93
2018-01-04T21:57:30.971Z,84.03
2018-01-04T21:59:58.600Z,71.77
2018-01-04T22:02:26.291Z,59.37
2018-01-04T22:04:54.127Z,63.23
2018-01-04T22:07:21.689Z,178.50
2018-01-04T22:09:49.268Z,1999.90
2018-01-04T22:12:16.900Z,632.47
2018-01-04T22:14:44.698Z,693.50
2018-01-04T22:17:12.263Z,590.93
2018-01-04T22:19:40.135Z,528.30
2018-01-04T22:22:07.703Z,254.67
2018-01-04T22:24:35.572Z,125.90
2018-01-04T22:27:03.391Z,104.77
2018-01-04T22:29:30.971Z,73.93
2018-01-04T22:31:58.686Z,77.27
2018-01-04T22:34:26.278Z,55.00
2018-01-04T22:36:53.842Z,45.93
2018-01-04T22:39:21.412Z,43.03
2018-01-04T22:41:49.150Z,104.33
2018-01-04T22:44:16.710Z,80.30
2018-01-04T22:46:44.254Z,78.03
2018-01-04T22:49:11.870Z,102.50
2018-01-04T22:51:39.449Z,102.47
2018-01-04T22:54:07.184Z,205.00
2018-01-04T22:56:34.854Z,176.47
2018-01-04T22:59:02.427Z,413.03
2018-01-04T23:01:30.242Z,609.47
2018-01-04T23:03:57.979Z,1285.73
2018-01-04T23:06:25.546Z,1329.77
2018-01-04T23:08:53.127Z,581.97
2018-01-04T23:11:20.758Z,251.60
2018-01-04T23:13:48.316Z,85.80
2018-01-04T23:16:16.050Z,75.33
2018-01-04T23:18:43.759Z,65.67
2018-01-04T23:21:11.485Z,41.63
2018-01-04T23:23:39.204Z,44.67
2018-01-04T23:26:07.022Z,117.47
2018-01-04T23:28:34.585Z,641.53
2018-01-04T23:31:02.148Z,140.33
2018-01-04T23:33:29.942Z,66.53
2018-01-04T23:35:57.511Z,88.50
2018-01-04T23:38:25.313Z,187.93
2018-01-04T23:40:52.983Z,71.37
2018-01-04T23:43:20.554Z,175.23
2018-01-04T23:45:48.367Z,274.17
2018-01-04T23:48:16.186Z,93.63
2018-01-04T23:50:44.105Z,71.57
2018-01-04T23:53:11.661Z,49.57
2018-01-04T23:55:39.542Z,40.67
2018-01-04T23:58:07.098Z,42.33
